createdAt,value
2023-03-08T00:00:55.759Z,100240.47
2023-03-08T00:03:23.488Z,100242.47
2023-03-08T00:05:51.457Z,100241.44
2023-03-08T00:08:19.061Z,100239.63
2023-03-08T00:10:50.148Z,100233.38
2023-03-08T00:13:18.772Z,100243.81
2023-03-08T00:15:46.326Z,100238.91
2023-03-08T00:18:15.954Z,100242.28
2023-03-08T00:20:43.805Z,100248.88
2023-03-08T00:23:11.704Z,100243.78
2023-03-08T00:25:39.352Z,100241.25
2023-03-08T00:28:07.224Z,100238.88
2023-03-08T00:30:34.785Z,100247.97
2023-03-08T00:33:03.340Z,100255.47
2023-03-08T00:35:31.041Z,100258.47
2023-03-08T00:37:58.746Z,100254.06
2023-03-08T00:40:26.393Z,100251.47
2023-03-08T00:42:54.142Z,100255.94
2023-03-08T00:45:21.764Z,100259.91
2023-03-08T00:47:49.238Z,100260.03
2023-03-08T00:50:17.078Z,100266.56
2023-03-08T00:52:44.618Z,100259.41
2023-03-08T00:55:14.085Z,100257.66
2023-03-08T00:57:41.966Z,100265.66
2023-03-08T01:00:12.898Z,100256.19
2023-03-08T01:02:41.324Z,100257.66
2023-03-08T01:05:09.819Z,100261.81
2023-03-08T01:07:37.822Z,100266.13
2023-03-08T01:10:07.197Z,100259.34
2023-03-08T01:12:36.893Z,100263.03
2023-03-08T01:15:05.038Z,100267.88
2023-03-08T01:17:34.372Z,100272.44
2023-03-08T01:20:01.929Z,100279.81
2023-03-08T01:22:29.749Z,100275.16
2023-03-08T01:24:57.299Z,100279.03
2023-03-08T01:27:25.430Z,100281.81
2023-03-08T01:29:52.987Z,100281.03
2023-03-08T01:32:20.885Z,100282.72
2023-03-08T01:34:49.223Z,100277.91
2023-03-08T01:37:16.902Z,100280.38
2023-03-08T01:39:44.499Z,100266.50
2023-03-08T01:42:12.366Z,100266.50
2023-03-08T01:45:28.079Z,100262.44
2023-03-08T01:47:56.067Z,100256.09
2023-03-08T01:50:30.931Z,100259.50
2023-03-08T01:52:58.623Z,100252.56
2023-03-08T01:55:26.556Z,100259.19
2023-03-08T01:57:55.003Z,100255.22
2023-03-08T02:00:24.070Z,100255.91
2023-03-08T02:03:05.067Z,100245.03
2023-03-08T02:05:32.957Z,100253.50
2023-03-08T02:08:09.061Z,100245.94
2023-03-08T02:10:38.725Z,100233.72
2023-03-08T02:13:07.864Z,100238.06
2023-03-08T02:15:39.049Z,100227.25
2023-03-08T02:18:06.880Z,100229.34
2023-03-08T02:20:40.275Z,100224.63
2023-03-08T02:23:11.375Z,100228.28
2023-03-08T02:25:39.066Z,100232.22
2023-03-08T02:28:09.088Z,100225.13
2023-03-08T02:30:37.502Z,100224.50
2023-03-08T02:33:05.096Z,100229.53
2023-03-08T02:35:32.885Z,100230.22
2023-03-08T02:38:10.514Z,100234.84
2023-03-08T02:40:38.936Z,100238.38
2023-03-08T02:43:07.460Z,100240.31
2023-03-08T02:45:36.136Z,100238.38
2023-03-08T02:48:04.238Z,100243.53
2023-03-08T02:50:32.002Z,100244.69
2023-03-08T02:52:59.637Z,100246.78
2023-03-08T02:55:27.673Z,100249.69
2023-03-08T02:57:55.803Z,100256.97
2023-03-08T03:00:24.456Z,100255.84
2023-03-08T03:02:53.621Z,100252.41
2023-03-08T03:05:21.194Z,100267.31
2023-03-08T03:07:51.186Z,100254.66
2023-03-08T03:10:21.977Z,100258.47
2023-03-08T03:12:50.685Z,100265.09
2023-03-08T03:15:21.014Z,100271.50
2023-03-08T03:17:53.762Z,100271.84
2023-03-08T03:20:21.338Z,100260.22
2023-03-08T03:22:49.441Z,100255.13
2023-03-08T03:25:18.791Z,100261.22
2023-03-08T03:27:47.777Z,100272.91
2023-03-08T03:30:16.752Z,100273.41
2023-03-08T03:32:44.911Z,100272.59
2023-03-08T03:35:16.306Z,100268.50
2023-03-08T03:37:44.475Z,100266.97
2023-03-08T03:40:12.803Z,100260.66
2023-03-08T03:42:40.611Z,100264.94
2023-03-08T03:45:13.067Z,100269.72
2023-03-08T03:47:41.028Z,100274.59
2023-03-08T03:50:10.634Z,100266.19
2023-03-08T03:53:07.608Z,100262.66
2023-03-08T03:55:36.094Z,100248.59
2023-03-08T03:58:10.120Z,100244.56
2023-03-08T04:00:58.351Z,100242.06
2023-03-08T04:03:32.403Z,100240.69
2023-03-08T04:06:17.592Z,100240.53
2023-03-08T04:08:52.620Z,100240.00
2023-03-08T04:11:25.366Z,100234.09
2023-03-08T04:13:53.318Z,100241.19
2023-03-08T04:16:30.166Z,100240.97
2023-03-08T04:19:02.780Z,100243.34
2023-03-08T04:21:32.227Z,100253.44
2023-03-08T04:24:00.885Z,100252.13
2023-03-08T04:26:32.634Z,100260.72
2023-03-08T04:29:06.210Z,100258.50
2023-03-08T04:31:37.214Z,100248.66
2023-03-08T04:34:09.983Z,100239.91
2023-03-08T04:36:39.022Z,100234.56
2023-03-08T04:39:07.574Z,100229.00
2023-03-08T04:41:40.148Z,100228.16
2023-03-08T04:44:21.425Z,100231.31
2023-03-08T04:46:56.497Z,100225.56
2023-03-08T04:49:31.448Z,100226.59
2023-03-08T04:52:02.753Z,100219.00
2023-03-08T04:54:34.522Z,100218.88
2023-03-08T04:57:12.343Z,100244.53
2023-03-08T04:59:40.547Z,100238.78
2023-03-08T05:02:09.064Z,100226.41
2023-03-08T05:04:38.178Z,100234.75
2023-03-08T05:07:08.788Z,100220.88
2023-03-08T05:09:37.634Z,100211.53
2023-03-08T05:12:05.929Z,100217.94
2023-03-08T05:14:53.910Z,100216.66
2023-03-08T05:17:22.176Z,100219.22
2023-03-08T05:19:55.864Z,100202.31
2023-03-08T05:22:31.119Z,100198.00
2023-03-08T05:24:59.140Z,100199.16
2023-03-08T05:27:27.875Z,100202.88
2023-03-08T05:29:56.325Z,100207.75
2023-03-08T05:32:27.440Z,100213.81
2023-03-08T05:34:57.529Z,100210.72
2023-03-08T05:37:34.647Z,100210.09
2023-03-08T05:40:06.512Z,100207.47
2023-03-08T05:42:37.836Z,100220.88
2023-03-08T05:45:07.263Z,100226.31
2023-03-08T05:47:39.177Z,100234.91
2023-03-08T05:50:09.988Z,100248.34
2023-03-08T05:52:42.659Z,100238.56
2023-03-08T05:55:20.368Z,100244.53
2023-03-08T05:57:58.593Z,100244.59
2023-03-08T06:00:26.487Z,100246.31
2023-03-08T06:03:04.021Z,100244.91
2023-03-08T06:05:34.688Z,100234.69
2023-03-08T06:08:16.039Z,100212.03
2023-03-08T06:10:46.109Z,100207.28
2023-03-08T06:13:15.479Z,100218.06
2023-03-08T06:15:44.580Z,100218.09
2023-03-08T06:18:16.475Z,100211.59
2023-03-08T06:21:02.186Z,100207.31
2023-03-08T06:23:32.079Z,100199.00
2023-03-08T06:25:59.889Z,100190.44
2023-03-08T06:28:28.609Z,100176.75
2023-03-08T06:30:57.436Z,100179.69
2023-03-08T06:33:30.103Z,100179.16
2023-03-08T06:36:03.281Z,100170.72
2023-03-08T06:38:33.545Z,100161.06
2023-03-08T06:41:01.236Z,100162.47
2023-03-08T06:43:29.361Z,100166.41
2023-03-08T06:45:57.146Z,100169.91
2023-03-08T06:48:29.140Z,100168.66
2023-03-08T06:50:56.771Z,100177.94
2023-03-08T06:53:24.488Z,100171.88
2023-03-08T06:55:57.740Z,100169.09
2023-03-08T06:58:25.516Z,100161.84
2023-03-08T07:00:55.216Z,100162.16
2023-03-08T07:03:23.307Z,100163.59
2023-03-08T07:05:50.847Z,100157.28
2023-03-08T07:08:18.471Z,100158.97
2023-03-08T07:10:46.205Z,100153.31
2023-03-08T07:13:15.465Z,100160.41
2023-03-08T07:15:43.139Z,100152.47
2023-03-08T07:18:13.586Z,100155.41
2023-03-08T07:20:42.084Z,100154.06
2023-03-08T07:23:09.783Z,100148.25
2023-03-08T07:25:40.533Z,100135.28
2023-03-08T07:28:08.317Z,100137.22
2023-03-08T07:30:35.829Z,100130.78
2023-03-08T07:33:05.727Z,100123.50
2023-03-08T07:35:33.276Z,100122.56
2023-03-08T07:38:00.960Z,100110.69
2023-03-08T07:40:28.617Z,100124.97
2023-03-08T07:42:56.331Z,100108.56
2023-03-08T07:45:38.513Z,100119.53
2023-03-08T07:48:06.800Z,100126.97
2023-03-08T07:50:34.825Z,100129.25
2023-03-08T07:53:04.526Z,100136.72
2023-03-08T07:55:32.283Z,100130.41
2023-03-08T07:58:04.125Z,100117.75
2023-03-08T08:00:32.519Z,100114.56
2023-03-08T08:03:00.188Z,100131.22
2023-03-08T08:05:28.259Z,100106.06
2023-03-08T08:07:56.527Z,100108.72
2023-03-08T08:10:24.130Z,100111.00
2023-03-08T08:12:52.928Z,100106.44
2023-03-08T08:15:21.097Z,100103.16
2023-03-08T08:17:51.470Z,100105.44
2023-03-08T08:20:19.145Z,100106.38
2023-03-08T08:22:46.830Z,100108.31
2023-03-08T08:25:15.408Z,100112.47
2023-03-08T08:27:43.279Z,100116.03
2023-03-08T08:30:13.621Z,100103.03
2023-03-08T08:32:41.569Z,100112.50
2023-03-08T08:35:09.579Z,100112.91
2023-03-08T08:37:37.308Z,100119.66
2023-03-08T08:40:08.747Z,100112.75
2023-03-08T08:42:39.601Z,100109.59
2023-03-08T08:45:08.782Z,100111.94
2023-03-08T08:47:36.426Z,100111.31
2023-03-08T08:50:05.225Z,100114.25
2023-03-08T08:52:33.247Z,100091.31
2023-03-08T08:55:01.894Z,100093.03
2023-03-08T08:57:29.840Z,100073.66
2023-03-08T08:59:57.520Z,100069.63
2023-03-08T09:02:25.210Z,100078.44
2023-03-08T09:04:53.609Z,100084.78
2023-03-08T09:07:21.735Z,100078.41
2023-03-08T09:09:49.433Z,100081.13
2023-03-08T09:12:22.594Z,100079.31
2023-03-08T09:14:51.448Z,100076.75
2023-03-08T09:17:19.484Z,100078.81
2023-03-08T09:19:48.481Z,100082.72
2023-03-08T09:22:16.456Z,100088.97
2023-03-08T09:24:45.977Z,100093.19
2023-03-08T09:27:15.074Z,100095.78
2023-03-08T09:29:43.102Z,100101.81
2023-03-08T09:32:10.738Z,100089.88
2023-03-08T09:34:38.802Z,100085.34
2023-03-08T09:37:08.360Z,100086.38
2023-03-08T09:39:36.034Z,100078.72
2023-03-08T09:42:05.170Z,100078.31
2023-03-08T09:44:54.881Z,100085.19
2023-03-08T09:47:32.067Z,100074.44
2023-03-08T09:50:12.062Z,100076.03
2023-03-08T09:53:06.225Z,100067.75
2023-03-08T09:55:35.489Z,100060.91
2023-03-08T09:58:16.473Z,100062.75
2023-03-08T10:00:44.390Z,100069.09
2023-03-08T10:03:50.547Z,100056.28
2023-03-08T10:06:36.760Z,100046.13
2023-03-08T10:09:14.487Z,100049.06
2023-03-08T10:12:01.192Z,100053.84
2023-03-08T10:14:35.282Z,100045.25
2023-03-08T10:17:05.955Z,100055.00
2023-03-08T10:19:37.784Z,100043.72
2023-03-08T10:22:28.330Z,100030.63
2023-03-08T10:25:01.822Z,100025.41
2023-03-08T10:27:34.987Z,100018.16
2023-03-08T10:30:14.450Z,100029.09
2023-03-08T10:32:46.336Z,100028.00
2023-03-08T10:35:14.035Z,100019.91
2023-03-08T10:37:50.839Z,100017.31
2023-03-08T10:40:21.437Z,100018.13
2023-03-08T10:42:53.916Z,100011.81
2023-03-08T10:45:22.532Z,100009.75
2023-03-08T10:48:01.285Z,100012.56
2023-03-08T10:50:30.604Z,100025.59
2023-03-08T10:53:14.792Z,100009.00
2023-03-08T10:55:50.318Z,99995.84
2023-03-08T10:58:35.680Z,100002.84
2023-03-08T11:01:22.358Z,100013.59
2023-03-08T11:04:07.257Z,100009.91
2023-03-08T11:06:37.568Z,100010.31
2023-03-08T11:09:19.958Z,99998.28
2023-03-08T11:11:47.638Z,100010.94
2023-03-08T11:14:15.196Z,100005.56
2023-03-08T11:16:55.343Z,100005.81
2023-03-08T11:19:46.146Z,100013.94
2023-03-08T11:22:32.277Z,100011.31
2023-03-08T11:25:09.212Z,100013.59
2023-03-08T11:27:58.716Z,100008.91
2023-03-08T11:30:38.271Z,100010.09
2023-03-08T11:33:20.060Z,100022.06
2023-03-08T11:36:23.193Z,100012.66
2023-03-08T11:39:11.250Z,100011.81
2023-03-08T11:41:49.455Z,100012.78
2023-03-08T11:44:56.329Z,100009.75
2023-03-08T11:47:44.147Z,100001.44
2023-03-08T11:50:41.523Z,100009.41
2023-03-08T11:53:28.191Z,100015.91
2023-03-08T11:56:17.841Z,100020.84
2023-03-08T11:59:07.254Z,100021.19
2023-03-08T12:02:06.663Z,100023.50
2023-03-08T12:04:44.166Z,100006.50
2023-03-08T12:07:28.264Z,100012.22
2023-03-08T12:10:00.688Z,100007.84
2023-03-08T12:12:35.518Z,100005.63
2023-03-08T12:15:41.008Z,100002.66
2023-03-08T12:18:34.238Z,100005.81
2023-03-08T12:21:49.240Z,100004.75
2023-03-08T12:24:44.795Z,100004.28
2023-03-08T12:27:27.434Z,100011.09
2023-03-08T12:30:01.162Z,99997.16
2023-03-08T12:32:43.230Z,99994.28
2023-03-08T12:35:26.853Z,99996.38
2023-03-08T12:38:18.324Z,99996.63
2023-03-08T12:40:50.839Z,99999.13
2023-03-08T12:43:21.334Z,100005.22
2023-03-08T12:45:57.560Z,99998.91
2023-03-08T12:48:44.586Z,99998.91
2023-03-08T12:51:12.179Z,100006.75
2023-03-08T12:53:49.179Z,100004.56
2023-03-08T12:56:34.859Z,100008.91
2023-03-08T12:59:24.019Z,100002.34
2023-03-08T13:01:57.844Z,100017.84
2023-03-08T13:04:41.455Z,100015.38
2023-03-08T13:07:25.940Z,100011.31
2023-03-08T13:10:21.276Z,100005.28
2023-03-08T13:12:48.763Z,100021.19
2023-03-08T13:15:19.561Z,100021.78
2023-03-08T13:18:05.907Z,100022.72
2023-03-08T13:20:41.645Z,100020.59
2023-03-08T13:23:16.189Z,100015.66
2023-03-08T13:26:00.605Z,100021.13
2023-03-08T13:28:46.567Z,100015.09
2023-03-08T13:31:17.867Z,100010.91
2023-03-08T13:33:48.806Z,100013.53
2023-03-08T13:36:27.033Z,100007.34
2023-03-08T13:39:04.260Z,100010.38
2023-03-08T13:41:33.649Z,99999.31
2023-03-08T13:44:08.268Z,100007.56
2023-03-08T13:46:37.485Z,100001.88
2023-03-08T13:49:15.543Z,99999.06
2023-03-08T13:51:43.852Z,100000.41
2023-03-08T13:54:16.594Z,99997.41
2023-03-08T13:56:44.386Z,100006.41
2023-03-08T13:59:20.417Z,100004.25
2023-03-08T14:01:49.677Z,99999.59
2023-03-08T14:04:24.042Z,100001.63
2023-03-08T14:06:57.545Z,99998.91
2023-03-08T14:09:25.986Z,100000.22
2023-03-08T14:12:04.840Z,99997.56
2023-03-08T14:14:40.715Z,99998.38
2023-03-08T14:17:27.252Z,99990.41
2023-03-08T14:20:00.756Z,99991.06
2023-03-08T14:22:39.219Z,99990.50
2023-03-08T14:25:20.689Z,99993.03
2023-03-08T14:27:48.501Z,99989.50
2023-03-08T14:30:18.579Z,99991.78
2023-03-08T14:33:14.493Z,99990.13
2023-03-08T14:35:53.640Z,99988.91
2023-03-08T14:38:29.260Z,99990.34
2023-03-08T14:40:57.058Z,99984.50
2023-03-08T14:43:25.625Z,99984.38
2023-03-08T14:45:57.990Z,99982.81
2023-03-08T14:48:30.020Z,99979.81
2023-03-08T14:51:05.528Z,99982.19
2023-03-08T14:53:38.894Z,99975.56
2023-03-08T14:56:16.837Z,99974.22
2023-03-08T14:58:49.320Z,99977.66
2023-03-08T15:01:29.080Z,99974.44
2023-03-08T15:03:56.956Z,99969.97
2023-03-08T15:06:27.889Z,99968.09
2023-03-08T15:08:55.599Z,99968.63
2023-03-08T15:11:23.718Z,99966.28
2023-03-08T15:13:51.662Z,99964.31
2023-03-08T15:16:19.511Z,99970.72
2023-03-08T15:18:47.121Z,99975.47
2023-03-08T15:21:15.752Z,99973.06
2023-03-08T15:23:44.870Z,99974.25
2023-03-08T15:26:14.490Z,99968.63
2023-03-08T15:28:42.061Z,99973.44
2023-03-08T15:31:09.728Z,99974.00
2023-03-08T15:33:37.460Z,99974.75
2023-03-08T15:36:05.813Z,99976.69
2023-03-08T15:38:33.530Z,99979.25
2023-03-08T15:41:05.737Z,99973.00
2023-03-08T15:43:33.747Z,99980.88
2023-03-08T15:46:01.306Z,99981.56
2023-03-08T15:48:28.857Z,99985.41
2023-03-08T15:50:57.386Z,99979.53
2023-03-08T15:53:35.295Z,99980.41
2023-03-08T15:56:03.409Z,99989.47
2023-03-08T15:58:31.885Z,99985.88
2023-03-08T16:00:59.428Z,99984.63
2023-03-08T16:03:30.878Z,99981.25
2023-03-08T16:05:59.957Z,99989.69
2023-03-08T16:08:29.610Z,99987.38
2023-03-08T16:11:03.838Z,99983.59
2023-03-08T16:13:33.097Z,99984.25
2023-03-08T16:16:01.389Z,99987.22
2023-03-08T16:18:29.811Z,99983.03
2023-03-08T16:20:58.322Z,99988.94
2023-03-08T16:23:26.314Z,99978.03
2023-03-08T16:26:14.718Z,99989.16
2023-03-08T16:28:43.902Z,99983.50
2023-03-08T16:31:11.499Z,99981.63
2023-03-08T16:33:39.880Z,99991.06
2023-03-08T16:36:08.010Z,99992.75
2023-03-08T16:38:39.115Z,99988.56
2023-03-08T16:41:13.325Z,99998.19
2023-03-08T16:43:47.381Z,100002.84
2023-03-08T16:46:17.489Z,100003.44
2023-03-08T16:48:49.408Z,100000.94
2023-03-08T16:51:17.856Z,100001.75
2023-03-08T16:53:45.340Z,99998.56
2023-03-08T16:56:19.669Z,99999.25
2023-03-08T16:58:47.347Z,100007.84
2023-03-08T17:01:16.722Z,100011.84
2023-03-08T17:03:44.348Z,100009.09
2023-03-08T17:06:13.652Z,100015.38
2023-03-08T17:08:41.290Z,100006.13
2023-03-08T17:11:18.981Z,100017.47
2023-03-08T17:13:52.127Z,100009.50
2023-03-08T17:16:28.481Z,100006.97
2023-03-08T17:18:56.751Z,100007.38
2023-03-08T17:21:27.860Z,100004.25
2023-03-08T17:23:55.767Z,100014.72
2023-03-08T17:26:23.655Z,100016.19
2023-03-08T17:28:54.025Z,100019.38
2023-03-08T17:31:23.049Z,100016.66
2023-03-08T17:33:51.473Z,100014.97
2023-03-08T17:36:21.566Z,100013.53
2023-03-08T17:38:53.608Z,100016.69
2023-03-08T17:41:26.062Z,100020.28
2023-03-08T17:43:54.051Z,100023.84
2023-03-08T17:46:23.472Z,100020.91
2023-03-08T17:48:51.716Z,100018.38
2023-03-08T17:51:21.284Z,100013.97
2023-03-08T17:53:49.362Z,100023.41
2023-03-08T17:56:20.151Z,100033.06
2023-03-08T17:58:48.536Z,100043.97
2023-03-08T18:01:18.305Z,100034.69
2023-03-08T18:03:46.092Z,100032.13
2023-03-08T18:06:25.134Z,100042.25
2023-03-08T18:08:52.869Z,100038.00
2023-03-08T18:11:20.694Z,100025.38
2023-03-08T18:13:49.339Z,100028.75
2023-03-08T18:16:17.723Z,100022.63
2023-03-08T18:18:51.422Z,100028.81
2023-03-08T18:21:19.736Z,100025.41
2023-03-08T18:23:47.760Z,100024.94
2023-03-08T18:26:17.202Z,100024.72
2023-03-08T18:28:44.872Z,100024.28
2023-03-08T18:31:20.839Z,100019.00
2023-03-08T18:33:48.458Z,100018.19
2023-03-08T18:36:25.247Z,100016.13
2023-03-08T18:38:52.827Z,100013.56
2023-03-08T18:41:27.660Z,100018.38
2023-03-08T18:44:01.477Z,100020.50
2023-03-08T18:46:30.079Z,100033.75
2023-03-08T18:49:02.031Z,100026.97
2023-03-08T18:51:30.620Z,100038.34
2023-03-08T18:53:58.577Z,100031.22
2023-03-08T18:57:22.541Z,100021.72
2023-03-08T19:00:02.506Z,100034.38
2023-03-08T19:02:31.482Z,100024.56
2023-03-08T19:04:59.175Z,100032.09
2023-03-08T19:07:26.990Z,100031.25
2023-03-08T19:09:55.475Z,100029.09
2023-03-08T19:12:23.126Z,100031.69
2023-03-08T19:14:52.548Z,100034.00
2023-03-08T19:17:20.687Z,100039.72
2023-03-08T19:19:48.451Z,100031.50
2023-03-08T19:22:20.269Z,100027.31
2023-03-08T19:24:48.582Z,100040.13
2023-03-08T19:27:16.360Z,100031.50
2023-03-08T19:29:44.221Z,100035.94
2023-03-08T19:32:14.982Z,100036.13
2023-03-08T19:34:44.829Z,100043.72
2023-03-08T19:37:13.478Z,100045.19
2023-03-08T19:39:41.284Z,100048.16
2023-03-08T19:42:11.546Z,100050.88
2023-03-08T19:44:40.279Z,100046.69
2023-03-08T19:47:10.300Z,100042.22
2023-03-08T19:49:40.088Z,100038.00
2023-03-08T19:52:07.924Z,100044.13
2023-03-08T19:54:39.466Z,100042.03
2023-03-08T19:57:07.152Z,100033.81
2023-03-08T19:59:38.820Z,100029.38
2023-03-08T20:02:07.489Z,100031.31
2023-03-08T20:04:36.672Z,100026.66
2023-03-08T20:07:05.039Z,100026.50
2023-03-08T20:09:33.723Z,100029.44
2023-03-08T20:12:01.373Z,100024.22
2023-03-08T20:14:30.276Z,100035.16
2023-03-08T20:16:59.444Z,100037.22
2023-03-08T20:19:32.013Z,100035.75
2023-03-08T20:22:00.359Z,100037.91
2023-03-08T20:24:35.473Z,100026.97
2023-03-08T20:27:04.352Z,100038.31
2023-03-08T20:29:31.966Z,100030.53
2023-03-08T20:31:59.738Z,100025.06
2023-03-08T20:34:27.633Z,100029.91
2023-03-08T20:36:56.419Z,100028.63
2023-03-08T20:39:24.387Z,100032.00
2023-03-08T20:41:52.116Z,100023.16
2023-03-08T20:44:19.965Z,100019.19
2023-03-08T20:46:48.746Z,100016.88
2023-03-08T20:49:16.970Z,100001.53
2023-03-08T20:51:44.599Z,100001.94
2023-03-08T20:54:12.624Z,100001.47
2023-03-08T20:56:41.453Z,99990.75
2023-03-08T20:59:09.013Z,99990.13
2023-03-08T21:01:42.174Z,99989.66
2023-03-08T21:04:10.005Z,99989.50
2023-03-08T21:06:37.995Z,99984.22
2023-03-08T21:09:05.686Z,99966.97
2023-03-08T21:11:33.315Z,99975.88
2023-03-08T21:14:00.902Z,99982.13
2023-03-08T21:16:28.906Z,100005.09
2023-03-08T21:18:58.939Z,100007.00
2023-03-08T21:21:39.715Z,100010.81
2023-03-08T21:24:12.500Z,99997.34
2023-03-08T21:26:40.613Z,99998.00
2023-03-08T21:29:11.104Z,100010.78
2023-03-08T21:31:52.368Z,100004.22
2023-03-08T21:34:21.052Z,100005.94
2023-03-08T21:36:49.105Z,100007.44
2023-03-08T21:39:17.028Z,100001.28
2023-03-08T21:41:46.007Z,99995.44
2023-03-08T21:44:17.936Z,99984.47
2023-03-08T21:46:46.762Z,99984.47
2023-03-08T21:49:22.091Z,99982.38
2023-03-08T21:51:50.518Z,99973.34
2023-03-08T21:54:18.819Z,99992.09
2023-03-08T21:56:47.304Z,99987.06
2023-03-08T21:59:16.904Z,99983.47
2023-03-08T22:01:48.900Z,99988.13
2023-03-08T22:04:17.171Z,99983.94
2023-03-08T22:06:44.889Z,99982.63
2023-03-08T22:09:14.071Z,99983.06
2023-03-08T22:11:41.865Z,99995.06
2023-03-08T22:14:10.261Z,99983.31
2023-03-08T22:16:40.105Z,99985.19
2023-03-08T22:19:07.994Z,99987.31
2023-03-08T22:21:35.698Z,99991.50
2023-03-08T22:24:10.240Z,99993.38
2023-03-08T22:26:37.918Z,99992.97
2023-03-08T22:29:05.808Z,99994.00
2023-03-08T22:31:33.638Z,99992.13
2023-03-08T22:34:02.046Z,99989.78
2023-03-08T22:36:31.130Z,99984.34
2023-03-08T22:38:58.740Z,99989.16
2023-03-08T22:41:27.532Z,99994.03
2023-03-08T22:43:55.331Z,99992.34
2023-03-08T22:46:26.109Z,100000.53
2023-03-08T22:48:55.744Z,99991.06
2023-03-08T22:51:23.595Z,99994.81
2023-03-08T22:53:51.348Z,99988.91
2023-03-08T22:56:29.732Z,99981.56
2023-03-08T22:58:58.210Z,99990.34
2023-03-08T23:01:26.497Z,99981.78
2023-03-08T23:03:55.278Z,99989.81
2023-03-08T23:06:28.471Z,99988.53
2023-03-08T23:08:57.147Z,99983.28
2023-03-08T23:11:24.911Z,99993.75
2023-03-08T23:13:52.875Z,99998.16
2023-03-08T23:16:20.806Z,99994.56
2023-03-08T23:18:49.257Z,99994.34
2023-03-08T23:21:18.035Z,99991.38
2023-03-08T23:23:45.706Z,99986.50
2023-03-08T23:26:15.983Z,99994.56
2023-03-08T23:28:43.763Z,99997.28
2023-03-08T23:31:16.769Z,99987.41
2023-03-08T23:33:45.827Z,99994.22
2023-03-08T23:36:14.443Z,99990.72
2023-03-08T23:38:42.295Z,99991.16
2023-03-08T23:41:10.547Z,100019.59
2023-03-08T23:43:39.011Z,100041.06
2023-03-08T23:46:07.905Z,100027.56
2023-03-08T23:48:36.465Z,100004.69
2023-03-08T23:51:08.042Z,100026.50
2023-03-08T23:53:35.666Z,100026.81
2023-03-08T23:56:04.700Z,100027.97
2023-03-08T23:58:32.701Z,100022.06
